Hlavní strana
METAR-TAF:

METAR-TAF

Letiště :

Tumbes, Peru

zeměpisná šířka: 03-33S, zeměpisná délka: 080-24W, výška: 25 m

Aktuální stav počasí

Zpráva byla vytvořena před 13 hodinami a 45 minutami, v 19:00 UTC
Severoseverozápadní vítr 7 kt
Teplota 30°C
Vlhkost vzduchu 70%
Tlak 1009 hPa
Viditelnost 10 km a více
Oblačno až skoro zataženo ve výšce 3000 ft

METAR: SPME 091900Z 34007KT 9999 BKN030 30/24 Q1009 RMK BIRD HAZARD RWY 32/14 PP000

Čas: 03:45 (08:45 UTC)

Předpověď počasí

Zpráva byla vytvořena před 21 hodinami a 45 minutami, v 11:00 UTC
Předpověď platná od 09 v 12 UTC do 10 v 12 UTC
Východní vítr 4 kt
Viditelnost 10 km a více
Oblačno až skoro zataženo ve výšce 1700 ft
Změna
od 09 v 16 UTC do 09 v 18 UTC
Severozápadní vítr 10 kt
Polojasno ve výšce 2000 ft

TAF: SPME 091100Z 0912/1012 09004KT 9999 BKN017 TX31/0919Z TN23/1011Z BECMG 0916/0918 32010KT SCT020

Stav a předpovědi počasí z více než 4 000 letišť (zprávy METAR a TAF).

Červené a žluté tečky na mapě představují dostupné meteorologické stanice.

Když kurzor umístíte na tečku, zobrazí se název stanice.

Pak kliknutím zobrazíte stav a předpověď počasí.

Chcete-li změnit mapu, kliknutím na zelené tlačítko se znaménkem +mapu přiblížíte, kliknutím na zelené tlačítko se znaménkem – mapu oddálíte a kliknutím na zelené šipky přejdete na sousední mapy.


METAR-TAF: